createdAt,value
2017-11-14T00:00:18.411Z,35.82
2017-11-14T00:01:18.390Z,37.78
2017-11-14T00:02:18.380Z,39.18
2017-11-14T00:03:18.372Z,38.50
2017-11-14T00:04:18.355Z,40.78
2017-11-14T00:05:18.332Z,41.09
2017-11-14T00:06:18.325Z,37.92
2017-11-14T00:07:18.324Z,41.83
2017-11-14T00:08:18.308Z,35.65
2017-11-14T00:09:18.296Z,34.48
2017-11-14T00:10:18.276Z,31.23
2017-11-14T00:11:18.278Z,37.71
2017-11-14T00:12:18.258Z,39.70
2017-11-14T00:13:18.246Z,39.78
2017-11-14T00:14:18.238Z,38.52
2017-11-14T00:15:19.194Z,35.24
2017-11-14T00:16:18.213Z,46.15
2017-11-14T00:17:19.210Z,39.91
2017-11-14T00:18:18.185Z,36.80
2017-11-14T00:19:18.183Z,35.48
2017-11-14T00:20:18.158Z,35.48
2017-11-14T00:21:18.145Z,35.13
2017-11-14T00:22:18.147Z,33.54
2017-11-14T00:23:18.133Z,34.12
2017-11-14T00:24:18.117Z,33.34
2017-11-14T00:25:18.108Z,34.52
2017-11-14T00:26:18.698Z,34.88
2017-11-14T00:27:18.086Z,30.38
2017-11-14T00:28:18.071Z,36.36
2017-11-14T00:29:18.058Z,33.94
2017-11-14T00:30:18.090Z,42.97
2017-11-14T00:31:18.046Z,36.80
2017-11-14T00:32:18.031Z,34.74
2017-11-14T00:33:18.021Z,33.09
2017-11-14T00:34:18.694Z,33.26
2017-11-14T00:35:17.990Z,44.00
2017-11-14T00:36:17.979Z,45.08
2017-11-14T00:37:17.970Z,41.92
2017-11-14T00:38:17.956Z,41.36
2017-11-14T00:39:17.949Z,33.69
2017-11-14T00:40:17.932Z,38.60
2017-11-14T00:41:17.916Z,39.84
2017-11-14T00:42:17.912Z,42.23
2017-11-14T00:43:17.894Z,41.18
2017-11-14T00:44:17.903Z,44.22
2017-11-14T00:45:17.881Z,42.54
2017-11-14T00:46:17.873Z,39.63
2017-11-14T00:47:17.850Z,43.52
2017-11-14T00:48:17.841Z,40.04
2017-11-14T00:49:17.835Z,39.97
2017-11-14T00:50:17.821Z,35.36
2017-11-14T00:51:18.708Z,40.52
2017-11-14T00:52:17.799Z,40.80
2017-11-14T00:53:17.782Z,40.63
2017-11-14T00:54:17.778Z,38.41
2017-11-14T00:55:17.751Z,41.30
2017-11-14T00:56:18.731Z,42.36
2017-11-14T00:57:17.745Z,41.47
2017-11-14T00:58:17.723Z,40.68
2017-11-14T00:59:17.712Z,43.99
2017-11-14T01:00:17.697Z,37.74
2017-11-14T01:01:18.224Z,47.98
2017-11-14T01:02:17.677Z,42.37
2017-11-14T01:03:17.670Z,30.84
2017-11-14T01:04:17.657Z,41.32
2017-11-14T01:05:17.639Z,47.64
2017-11-14T01:06:17.622Z,42.26
2017-11-14T01:07:17.632Z,40.61
2017-11-14T01:08:17.618Z,37.65
2017-11-14T01:09:17.591Z,41.58
2017-11-14T01:10:17.578Z,44.48
2017-11-14T01:11:17.561Z,42.12
2017-11-14T01:12:17.566Z,41.20
2017-11-14T01:13:17.544Z,53.71
2017-11-14T01:14:17.532Z,42.45
2017-11-14T01:15:17.526Z,40.64
2017-11-14T01:16:17.513Z,37.70
2017-11-14T01:17:17.497Z,42.44
2017-11-14T01:18:17.491Z,49.01
2017-11-14T01:19:17.473Z,51.60
2017-11-14T01:20:17.471Z,46.96
2017-11-14T01:21:17.452Z,44.38
2017-11-14T01:22:17.436Z,46.26
2017-11-14T01:23:17.437Z,48.16
2017-11-14T01:24:17.437Z,46.65
2017-11-14T01:25:17.415Z,45.10
2017-11-14T01:26:17.390Z,43.99
2017-11-14T01:27:17.373Z,41.32
2017-11-14T01:28:18.219Z,38.42
2017-11-14T01:29:17.359Z,40.16
2017-11-14T01:30:17.345Z,41.47
2017-11-14T01:31:17.335Z,41.61
2017-11-14T01:32:17.313Z,43.71
2017-11-14T01:33:18.223Z,37.22
2017-11-14T01:34:17.302Z,45.90
2017-11-14T01:35:17.284Z,40.82
2017-11-14T01:36:18.227Z,40.95
2017-11-14T01:37:17.270Z,44.61
2017-11-14T01:38:17.251Z,43.96
2017-11-14T01:39:17.245Z,44.42
2017-11-14T01:40:17.225Z,40.58
2017-11-14T01:41:17.220Z,42.05
2017-11-14T01:42:17.204Z,46.85
2017-11-14T01:43:17.733Z,50.58
2017-11-14T01:44:17.175Z,41.52
2017-11-14T01:45:17.732Z,40.81
2017-11-14T01:46:17.150Z,45.42
2017-11-14T01:47:17.729Z,43.68
2017-11-14T01:48:17.132Z,35.51
2017-11-14T01:49:17.105Z,39.25
2017-11-14T01:50:17.103Z,37.46
2017-11-14T01:51:17.096Z,45.22
2017-11-14T01:52:17.085Z,42.39
2017-11-14T01:53:17.065Z,39.63
2017-11-14T01:54:17.059Z,41.93
2017-11-14T01:55:17.730Z,47.51
2017-11-14T01:56:17.035Z,39.39
2017-11-14T01:57:17.028Z,40.67
2017-11-14T01:58:17.011Z,40.00
2017-11-14T01:59:17.008Z,38.17
2017-11-14T02:00:16.985Z,37.06
2017-11-14T02:01:16.979Z,35.22
2017-11-14T02:02:16.967Z,44.30
2017-11-14T02:03:17.726Z,38.70
2017-11-14T02:04:16.938Z,43.80
2017-11-14T02:05:16.924Z,39.48
2017-11-14T02:06:16.935Z,43.10
2017-11-14T02:07:16.912Z,41.06
2017-11-14T02:08:16.884Z,39.44
2017-11-14T02:09:16.869Z,43.36
2017-11-14T02:10:16.864Z,31.53
2017-11-14T02:11:16.848Z,31.27
2017-11-14T02:12:16.843Z,37.46
2017-11-14T02:13:16.830Z,32.06
2017-11-14T02:14:16.816Z,32.77
2017-11-14T02:15:16.806Z,37.42
2017-11-14T02:16:16.803Z,47.34
2017-11-14T02:17:16.775Z,34.72
2017-11-14T02:18:16.774Z,35.79
2017-11-14T02:19:16.759Z,35.95
2017-11-14T02:20:16.758Z,37.73
2017-11-14T02:21:16.732Z,34.72
2017-11-14T02:22:16.721Z,37.96
2017-11-14T02:23:16.710Z,41.77
2017-11-14T02:24:17.248Z,44.66
2017-11-14T02:25:16.682Z,38.54
2017-11-14T02:26:16.668Z,43.47
2017-11-14T02:27:16.675Z,40.92
2017-11-14T02:28:16.644Z,37.08
2017-11-14T02:29:16.642Z,37.22
2017-11-14T02:30:16.621Z,33.90
2017-11-14T02:31:16.614Z,31.71
2017-11-14T02:32:16.598Z,29.90
2017-11-14T02:33:16.587Z,36.84
2017-11-14T02:34:16.591Z,31.11
2017-11-14T02:35:17.241Z,30.13
2017-11-14T02:36:16.572Z,30.01
2017-11-14T02:37:16.552Z,33.86
2017-11-14T02:38:16.531Z,35.89
2017-11-14T02:39:16.531Z,36.02
2017-11-14T02:40:16.506Z,36.02
2017-11-14T02:41:16.504Z,32.48
2017-11-14T02:42:16.476Z,34.01
2017-11-14T02:43:17.257Z,37.96
2017-11-14T02:44:17.244Z,31.76
2017-11-14T02:45:17.246Z,32.08
2017-11-14T02:46:16.446Z,35.02
2017-11-14T02:47:16.430Z,34.60
2017-11-14T02:48:16.408Z,37.36
2017-11-14T02:49:16.410Z,34.87
2017-11-14T02:50:16.398Z,35.49
2017-11-14T02:51:16.391Z,42.28
2017-11-14T02:52:16.377Z,37.58
2017-11-14T02:53:16.359Z,27.26
2017-11-14T02:54:16.352Z,35.76
2017-11-14T02:55:16.342Z,33.51
2017-11-14T02:56:16.317Z,31.79
2017-11-14T02:57:16.308Z,31.77
2017-11-14T02:58:16.293Z,35.66
2017-11-14T02:59:16.281Z,38.13
2017-11-14T03:00:16.268Z,29.66
2017-11-14T03:01:16.259Z,36.06
2017-11-14T03:02:18.745Z,37.57
2017-11-14T03:03:16.236Z,35.97
2017-11-14T03:04:16.224Z,37.54
2017-11-14T03:05:16.209Z,41.52
2017-11-14T03:06:16.196Z,44.74
2017-11-14T03:07:16.190Z,55.28
2017-11-14T03:08:16.177Z,59.08
2017-11-14T03:09:16.168Z,54.86
2017-11-14T03:10:16.165Z,56.32
2017-11-14T03:11:16.140Z,59.31
2017-11-14T03:12:16.124Z,65.47
2017-11-14T03:13:16.141Z,65.99
2017-11-14T03:14:16.105Z,69.59
2017-11-14T03:15:16.088Z,76.53
2017-11-14T03:16:16.094Z,74.42
2017-11-14T03:17:16.070Z,63.75
2017-11-14T03:18:16.063Z,56.27
2017-11-14T03:19:16.051Z,54.06
2017-11-14T03:20:16.035Z,50.46
2017-11-14T03:21:16.015Z,56.10
2017-11-14T03:22:16.755Z,60.51
2017-11-14T03:23:16.002Z,47.58
2017-11-14T03:24:15.990Z,47.33
2017-11-14T03:25:15.991Z,45.33
2017-11-14T03:26:15.957Z,39.08
2017-11-14T03:27:15.949Z,48.48
2017-11-14T03:28:15.940Z,44.92
2017-11-14T03:29:15.939Z,51.98
2017-11-14T03:30:15.922Z,49.01
2017-11-14T03:31:15.917Z,50.06
2017-11-14T03:32:15.898Z,43.46
2017-11-14T03:33:15.893Z,48.08
2017-11-14T03:34:15.868Z,48.17
2017-11-14T03:35:15.869Z,43.66
2017-11-14T03:36:15.843Z,39.85
2017-11-14T03:37:15.836Z,38.19
2017-11-14T03:38:15.827Z,40.17
2017-11-14T03:39:15.808Z,46.02
2017-11-14T03:40:15.800Z,42.97
2017-11-14T03:41:15.786Z,46.34
2017-11-14T03:42:15.773Z,44.24
2017-11-14T03:43:15.763Z,46.66
2017-11-14T03:44:15.747Z,38.10
2017-11-14T03:45:15.744Z,45.32
2017-11-14T03:45:27.742Z,2.00
2017-11-14T03:47:15.714Z,45.04
2017-11-14T03:48:15.704Z,50.65
2017-11-14T03:49:15.691Z,48.97
2017-11-14T03:50:15.688Z,47.56
2017-11-14T03:51:15.676Z,48.56
2017-11-14T03:52:15.655Z,43.01
2017-11-14T03:53:15.639Z,40.96
2017-11-14T03:54:15.628Z,40.53
2017-11-14T03:55:15.616Z,46.73
2017-11-14T03:56:15.611Z,42.94
2017-11-14T03:57:15.590Z,36.72
2017-11-14T03:58:15.581Z,39.58
2017-11-14T03:59:15.567Z,40.54
2017-11-14T04:00:15.555Z,36.55
2017-11-14T04:01:18.266Z,35.45
2017-11-14T04:02:15.534Z,38.45
2017-11-14T04:03:15.520Z,38.54
2017-11-14T04:04:15.523Z,40.92
2017-11-14T04:05:15.500Z,39.20
2017-11-14T04:06:15.484Z,38.80
2017-11-14T04:07:15.468Z,34.03
2017-11-14T04:08:15.458Z,37.59
2017-11-14T04:09:15.444Z,33.57
2017-11-14T04:10:15.436Z,32.93
2017-11-14T04:11:15.418Z,37.10
2017-11-14T04:12:15.411Z,39.84
2017-11-14T04:13:15.397Z,37.10
2017-11-14T04:14:15.379Z,37.02
2017-11-14T04:15:15.375Z,43.66
2017-11-14T04:16:18.267Z,45.03
2017-11-14T04:17:16.281Z,35.09
2017-11-14T04:18:15.338Z,35.97
2017-11-14T04:19:15.336Z,30.83
2017-11-14T04:20:15.310Z,32.30
2017-11-14T04:21:15.300Z,41.69
2017-11-14T04:22:16.275Z,40.06
2017-11-14T04:23:15.297Z,40.31
2017-11-14T04:24:15.265Z,40.86
2017-11-14T04:25:15.252Z,33.16
2017-11-14T04:26:15.240Z,33.08
2017-11-14T04:27:15.225Z,34.01
2017-11-14T04:28:15.215Z,31.73
2017-11-14T04:29:15.205Z,25.32
2017-11-14T04:30:15.194Z,30.06
2017-11-14T04:31:15.183Z,34.94
2017-11-14T04:32:15.177Z,28.70
2017-11-14T04:33:17.787Z,30.93
2017-11-14T04:34:15.142Z,35.89
2017-11-14T04:35:15.128Z,32.08
2017-11-14T04:36:15.117Z,29.50
2017-11-14T04:37:15.108Z,32.94
2017-11-14T04:38:15.781Z,30.48
2017-11-14T04:39:15.080Z,30.57
2017-11-14T04:40:15.069Z,34.23
2017-11-14T04:41:15.057Z,27.43
2017-11-14T04:42:15.050Z,26.97
2017-11-14T04:43:15.046Z,32.75
2017-11-14T04:44:15.031Z,36.64
2017-11-14T04:45:15.017Z,37.47
2017-11-14T04:46:15.001Z,37.82
2017-11-14T04:47:15.004Z,32.04
2017-11-14T04:48:14.973Z,30.60
2017-11-14T04:49:15.790Z,30.62
2017-11-14T04:50:14.939Z,36.04
2017-11-14T04:51:14.939Z,34.79
2017-11-14T04:52:14.920Z,30.00
2017-11-14T04:53:14.909Z,28.47
2017-11-14T04:54:15.782Z,35.08
2017-11-14T04:55:14.886Z,31.61
2017-11-14T04:56:14.881Z,34.03
2017-11-14T04:57:14.866Z,34.10
2017-11-14T04:58:14.855Z,31.48
2017-11-14T04:59:14.848Z,27.88
2017-11-14T05:00:14.833Z,37.92
2017-11-14T05:01:14.816Z,39.08
2017-11-14T05:02:14.828Z,38.10
2017-11-14T05:03:14.797Z,45.76
2017-11-14T05:04:14.781Z,46.27
2017-11-14T05:05:14.772Z,39.98
2017-11-14T05:06:14.751Z,38.05
2017-11-14T05:07:14.739Z,45.10
2017-11-14T05:08:14.729Z,37.04
2017-11-14T05:09:14.713Z,43.65
2017-11-14T05:10:14.708Z,46.11
2017-11-14T05:11:14.693Z,41.38
2017-11-14T05:12:14.677Z,47.25
2017-11-14T05:13:14.669Z,50.97
2017-11-14T05:14:14.658Z,48.98
2017-11-14T05:15:14.641Z,54.80
2017-11-14T05:16:14.632Z,60.26
2017-11-14T05:17:14.620Z,56.34
2017-11-14T05:18:14.606Z,63.30
2017-11-14T05:19:14.593Z,55.55
2017-11-14T05:20:14.581Z,54.16
2017-11-14T05:21:14.576Z,62.13
2017-11-14T05:22:14.562Z,58.47
2017-11-14T05:23:14.544Z,63.14
2017-11-14T05:24:15.286Z,72.62
2017-11-14T05:25:14.525Z,77.74
2017-11-14T05:26:14.497Z,72.02
2017-11-14T05:27:14.489Z,65.54
2017-11-14T05:28:14.471Z,53.51
2017-11-14T05:29:14.463Z,53.40
2017-11-14T05:30:14.460Z,68.55
2017-11-14T05:31:14.444Z,62.86
2017-11-14T05:32:14.426Z,49.04
2017-11-14T05:33:14.411Z,50.74
2017-11-14T05:34:14.405Z,51.96
2017-11-14T05:35:14.395Z,54.37
2017-11-14T05:36:14.386Z,56.27
2017-11-14T05:37:14.371Z,66.55
2017-11-14T05:38:14.519Z,62.56
2017-11-14T05:39:14.344Z,63.15
2017-11-14T05:40:14.328Z,63.72
2017-11-14T05:41:14.316Z,67.21
2017-11-14T05:42:14.303Z,63.88
2017-11-14T05:43:14.293Z,59.84
2017-11-14T05:44:14.280Z,53.46
2017-11-14T05:45:14.269Z,65.55
2017-11-14T05:46:14.249Z,62.64
2017-11-14T05:47:14.241Z,68.23
2017-11-14T05:48:14.230Z,54.52
2017-11-14T05:49:14.217Z,52.05
2017-11-14T05:50:14.208Z,63.83
2017-11-14T05:51:14.194Z,61.15
2017-11-14T05:52:14.181Z,67.99
2017-11-14T05:53:14.163Z,61.92
2017-11-14T05:54:14.154Z,64.70
2017-11-14T05:55:14.138Z,63.99
2017-11-14T05:56:14.126Z,64.51
2017-11-14T05:57:14.113Z,62.76
2017-11-14T05:58:14.100Z,67.18
2017-11-14T05:59:14.088Z,61.51
2017-11-14T06:00:14.075Z,70.57
2017-11-14T06:01:14.061Z,68.49
2017-11-14T06:02:14.052Z,62.01
2017-11-14T06:03:14.032Z,70.94
2017-11-14T06:04:14.803Z,69.18
2017-11-14T06:05:14.014Z,67.74
2017-11-14T06:06:13.997Z,67.34
2017-11-14T06:07:14.815Z,68.71
2017-11-14T06:08:13.970Z,66.80
2017-11-14T06:09:13.957Z,65.85
2017-11-14T06:10:13.964Z,67.33
2017-11-14T06:11:13.929Z,57.66
2017-11-14T06:12:13.918Z,87.30
2017-11-14T06:13:13.911Z,90.77
2017-11-14T06:14:13.892Z,75.96
2017-11-14T06:15:13.883Z,64.41
2017-11-14T06:16:13.869Z,70.58
2017-11-14T06:17:13.859Z,71.46
2017-11-14T06:18:13.831Z,64.49
2017-11-14T06:19:13.831Z,60.79
2017-11-14T06:20:13.814Z,54.65
2017-11-14T06:21:13.801Z,56.70
2017-11-14T06:22:13.793Z,52.57
2017-11-14T06:23:13.779Z,49.53
2017-11-14T06:24:13.766Z,54.22
2017-11-14T06:25:13.742Z,50.98
2017-11-14T06:26:13.730Z,52.24
2017-11-14T06:27:13.736Z,50.82
2017-11-14T06:28:13.731Z,51.34
2017-11-14T06:29:13.699Z,56.18
2017-11-14T06:30:13.674Z,51.01
2017-11-14T06:31:13.669Z,53.21
2017-11-14T06:32:13.662Z,54.26
2017-11-14T06:33:13.642Z,47.20
2017-11-14T06:34:13.627Z,46.23
2017-11-14T06:35:13.725Z,46.04
2017-11-14T06:36:13.616Z,45.30
2017-11-14T06:37:14.308Z,51.95
2017-11-14T06:38:13.572Z,51.07
2017-11-14T06:39:13.571Z,51.80
2017-11-14T06:40:13.546Z,44.25
2017-11-14T06:41:13.536Z,40.62
2017-11-14T06:42:14.306Z,43.37
2017-11-14T06:43:13.511Z,44.02
2017-11-14T06:44:13.495Z,39.81
2017-11-14T06:45:14.322Z,47.72
2017-11-14T06:46:13.471Z,43.01
2017-11-14T06:47:13.466Z,48.62
2017-11-14T06:48:14.310Z,44.03
2017-11-14T06:49:13.421Z,47.21
2017-11-14T06:50:13.425Z,49.12
2017-11-14T06:51:13.403Z,50.66
2017-11-14T06:52:13.386Z,57.85
2017-11-14T06:53:13.376Z,51.87
2017-11-14T06:54:13.363Z,45.68
2017-11-14T06:55:13.361Z,40.85
2017-11-14T06:56:13.339Z,42.13
2017-11-14T06:57:13.329Z,43.32
2017-11-14T06:58:13.817Z,49.55
2017-11-14T06:59:19.812Z,39.69
2017-11-14T07:00:13.291Z,39.97
2017-11-14T07:01:13.269Z,38.70
2017-11-14T07:02:13.254Z,46.76
2017-11-14T07:03:13.255Z,50.52
2017-11-14T07:04:13.240Z,41.12
2017-11-14T07:05:13.213Z,45.14
2017-11-14T07:06:13.206Z,40.21
2017-11-14T07:07:13.190Z,35.74
2017-11-14T07:08:13.185Z,40.72
2017-11-14T07:09:13.161Z,38.12
2017-11-14T07:10:13.158Z,46.10
2017-11-14T07:11:13.143Z,48.47
2017-11-14T07:12:13.125Z,41.86
2017-11-14T07:13:13.819Z,38.58
2017-11-14T07:14:13.111Z,44.33
2017-11-14T07:15:13.100Z,47.43
2017-11-14T07:16:13.078Z,40.54
2017-11-14T07:17:13.059Z,35.69
2017-11-14T07:18:13.836Z,43.13
2017-11-14T07:19:13.050Z,40.86
2017-11-14T07:20:13.019Z,40.06
2017-11-14T07:21:13.001Z,47.94
2017-11-14T07:22:12.989Z,45.05
2017-11-14T07:23:13.814Z,34.68
2017-11-14T07:24:12.974Z,35.31
2017-11-14T07:25:12.949Z,34.65
2017-11-14T07:26:12.946Z,33.69
2017-11-14T07:27:12.930Z,40.78
2017-11-14T07:28:13.824Z,38.07
2017-11-14T07:29:12.903Z,35.17
2017-11-14T07:30:12.888Z,36.34
2017-11-14T07:31:12.875Z,37.05
2017-11-14T07:32:12.870Z,45.42
2017-11-14T07:33:12.861Z,35.03
2017-11-14T07:34:12.837Z,35.77
2017-11-14T07:35:12.824Z,27.66
2017-11-14T07:36:12.819Z,37.21
2017-11-14T07:37:12.804Z,32.56
2017-11-14T07:38:12.797Z,29.67
2017-11-14T07:39:12.774Z,30.73
2017-11-14T07:40:12.751Z,34.37
2017-11-14T07:41:12.753Z,25.56
2017-11-14T07:42:13.336Z,25.80
2017-11-14T07:43:12.737Z,34.86
2017-11-14T07:44:12.711Z,33.47
2017-11-14T07:45:12.698Z,29.23
2017-11-14T07:46:12.689Z,31.92
2017-11-14T07:47:12.673Z,33.21
2017-11-14T07:48:12.665Z,33.15
2017-11-14T07:49:12.649Z,31.80
2017-11-14T07:50:12.635Z,31.83
2017-11-14T07:51:12.622Z,23.33
2017-11-14T07:52:13.326Z,25.45
2017-11-14T07:53:12.603Z,25.72
2017-11-14T07:54:12.601Z,26.90
2017-11-14T07:55:12.584Z,24.23
2017-11-14T07:56:12.561Z,24.66
2017-11-14T07:57:12.564Z,21.89
2017-11-14T07:58:12.533Z,20.00
2017-11-14T07:59:12.526Z,21.04
2017-11-14T08:00:12.508Z,24.69
2017-11-14T08:01:13.332Z,27.50
2017-11-14T08:02:12.490Z,23.52
2017-11-14T08:03:12.478Z,24.18
2017-11-14T08:04:12.473Z,24.43
2017-11-14T08:05:12.460Z,20.78
2017-11-14T08:06:12.447Z,18.79
2017-11-14T08:07:12.445Z,19.93
2017-11-14T08:08:12.427Z,18.78
2017-11-14T08:09:12.414Z,19.26
2017-11-14T08:10:13.339Z,19.34
2017-11-14T08:11:12.396Z,19.39
2017-11-14T08:12:12.380Z,17.74
2017-11-14T08:13:12.364Z,21.28
2017-11-14T08:14:12.356Z,19.14
2017-11-14T08:15:12.347Z,20.02
2017-11-14T08:16:12.839Z,22.81
2017-11-14T08:17:12.322Z,19.67
2017-11-14T08:18:12.310Z,22.68
2017-11-14T08:19:12.316Z,24.76
2017-11-14T08:20:12.287Z,23.90
2017-11-14T08:21:12.833Z,22.55
2017-11-14T08:22:12.269Z,24.48
2017-11-14T08:23:12.255Z,19.02
2017-11-14T08:24:12.243Z,22.96
2017-11-14T08:25:12.232Z,21.81
2017-11-14T08:26:12.229Z,17.73
2017-11-14T08:27:12.842Z,19.51
2017-11-14T08:28:12.201Z,18.33
2017-11-14T08:29:12.193Z,17.00
2017-11-14T08:30:12.180Z,18.56
2017-11-14T08:31:12.173Z,22.96
2017-11-14T08:32:12.155Z,21.55
2017-11-14T08:33:12.148Z,21.62
2017-11-14T08:34:12.136Z,19.68
2017-11-14T08:35:12.125Z,19.91
2017-11-14T08:36:12.113Z,22.42
2017-11-14T08:37:12.105Z,19.47
2017-11-14T08:38:12.839Z,17.31
2017-11-14T08:39:12.088Z,17.34
2017-11-14T08:40:12.075Z,23.59
2017-11-14T08:41:12.065Z,22.39
2017-11-14T08:42:12.051Z,20.26
2017-11-14T08:43:12.051Z,19.53
2017-11-14T08:44:12.053Z,18.84
2017-11-14T08:45:12.020Z,18.09
2017-11-14T08:46:12.022Z,19.47
2017-11-14T08:47:11.993Z,23.22
2017-11-14T08:48:11.995Z,17.44
2017-11-14T08:49:11.981Z,17.56
2017-11-14T08:50:12.848Z,17.52
2017-11-14T08:51:11.956Z,18.30
2017-11-14T08:52:11.959Z,17.06
2017-11-14T08:53:11.942Z,15.83
2017-11-14T08:54:11.932Z,17.02
2017-11-14T08:55:11.922Z,18.12
2017-11-14T08:56:12.847Z,19.56
2017-11-14T08:57:11.903Z,21.62
2017-11-14T08:58:11.889Z,19.17
2017-11-14T08:59:11.877Z,19.58
2017-11-14T09:00:11.862Z,19.34
2017-11-14T09:01:12.859Z,18.18
2017-11-14T09:02:11.840Z,18.02
2017-11-14T09:03:11.837Z,17.15
2017-11-14T09:04:11.820Z,19.69
2017-11-14T09:05:11.816Z,21.41
2017-11-14T09:06:11.809Z,23.74
2017-11-14T09:07:11.800Z,22.05
2017-11-14T09:08:11.797Z,21.85
2017-11-14T09:09:11.781Z,22.17
2017-11-14T09:10:11.769Z,22.01
2017-11-14T09:11:12.356Z,25.63
2017-11-14T09:12:11.752Z,25.86
2017-11-14T09:13:11.738Z,23.64
2017-11-14T09:14:11.732Z,27.73
2017-11-14T09:15:11.718Z,24.26
2017-11-14T09:16:11.707Z,22.72
2017-11-14T09:17:11.697Z,21.39
2017-11-14T09:18:11.694Z,22.31
2017-11-14T09:19:11.680Z,21.97
2017-11-14T09:20:11.672Z,21.88
2017-11-14T09:21:11.657Z,23.80
2017-11-14T09:22:11.655Z,23.71
2017-11-14T09:23:11.637Z,21.57
2017-11-14T09:24:11.634Z,19.96
2017-11-14T09:25:11.625Z,21.70
2017-11-14T09:26:11.620Z,23.76
2017-11-14T09:27:11.603Z,26.34
2017-11-14T09:28:11.592Z,23.80
2017-11-14T09:29:11.578Z,25.06
2017-11-14T09:30:11.573Z,24.16
2017-11-14T09:31:11.559Z,22.06
2017-11-14T09:32:11.563Z,22.96
2017-11-14T09:33:11.542Z,23.51
2017-11-14T09:34:11.523Z,20.83
2017-11-14T09:35:11.524Z,25.14
2017-11-14T09:36:11.511Z,25.64
2017-11-14T09:37:11.502Z,21.63
2017-11-14T09:38:11.492Z,21.55
2017-11-14T09:39:11.485Z,21.02
2017-11-14T09:40:11.473Z,19.70
2017-11-14T09:41:11.461Z,18.80
2017-11-14T09:42:11.464Z,21.33
2017-11-14T09:43:11.442Z,17.95
2017-11-14T09:44:11.446Z,19.07
2017-11-14T09:45:12.367Z,19.20
2017-11-14T09:46:11.412Z,18.16
2017-11-14T09:47:11.396Z,16.18
2017-11-14T09:48:11.387Z,16.87
2017-11-14T09:49:11.382Z,18.10
2017-11-14T09:50:11.384Z,20.97
2017-11-14T09:51:11.370Z,21.40
2017-11-14T09:52:11.358Z,16.08
2017-11-14T09:53:11.378Z,18.38
2017-11-14T09:54:11.329Z,17.76
2017-11-14T09:55:11.318Z,16.64
2017-11-14T09:56:11.305Z,15.36
2017-11-14T09:57:11.297Z,13.64
2017-11-14T09:58:11.870Z,15.08
2017-11-14T09:59:11.276Z,14.31
2017-11-14T10:00:11.273Z,18.02
2017-11-14T10:01:11.269Z,17.52
2017-11-14T10:02:11.263Z,16.06
2017-11-14T10:03:11.257Z,14.07
2017-11-14T10:04:11.228Z,15.87
2017-11-14T10:05:11.234Z,15.89
2017-11-14T10:06:11.223Z,14.05
2017-11-14T10:07:11.197Z,17.91
2017-11-14T10:08:11.191Z,14.63
2017-11-14T10:09:11.188Z,17.18
2017-11-14T10:10:11.870Z,15.23
2017-11-14T10:11:11.173Z,19.74
2017-11-14T10:12:11.156Z,30.92
2017-11-14T10:13:11.135Z,27.21
2017-11-14T10:14:11.139Z,17.15
2017-11-14T10:15:11.131Z,14.37
2017-11-14T10:16:11.114Z,13.39
2017-11-14T10:17:11.113Z,14.01
2017-11-14T10:18:11.104Z,11.97
2017-11-14T10:19:11.094Z,15.10
2017-11-14T10:20:11.086Z,12.90
2017-11-14T10:21:11.080Z,14.19
2017-11-14T10:22:11.070Z,18.42
2017-11-14T10:23:11.063Z,11.41
2017-11-14T10:24:11.053Z,14.40
2017-11-14T10:25:11.040Z,11.56
2017-11-14T10:26:11.032Z,14.49
2017-11-14T10:27:11.027Z,16.93
2017-11-14T10:28:11.014Z,16.93
2017-11-14T10:29:11.875Z,17.81
2017-11-14T10:30:10.998Z,15.76
2017-11-14T10:31:10.991Z,14.24
2017-11-14T10:32:10.979Z,17.68
2017-11-14T10:33:10.978Z,12.31
2017-11-14T10:34:10.969Z,11.40
2017-11-14T10:35:10.967Z,15.30
2017-11-14T10:36:10.956Z,12.06
2017-11-14T10:37:10.943Z,10.29
2017-11-14T10:38:10.963Z,14.71
2017-11-14T10:39:10.925Z,14.63
2017-11-14T10:40:10.917Z,12.89
2017-11-14T10:41:10.910Z,12.59
2017-11-14T10:42:10.898Z,13.81
2017-11-14T10:43:10.892Z,11.21
2017-11-14T10:44:10.876Z,11.00
2017-11-14T10:45:10.875Z,13.31
2017-11-14T10:46:10.870Z,11.64
2017-11-14T10:47:10.857Z,18.02
2017-11-14T10:48:10.863Z,14.31
2017-11-14T10:49:10.849Z,15.78
2017-11-14T10:50:11.388Z,19.26
2017-11-14T10:51:10.843Z,14.74
2017-11-14T10:52:10.822Z,14.00
2017-11-14T10:53:10.817Z,16.78
2017-11-14T10:54:10.803Z,16.87
2017-11-14T10:55:10.797Z,14.28
2017-11-14T10:56:10.810Z,12.49
2017-11-14T10:57:10.790Z,14.99
2017-11-14T10:58:10.771Z,11.98
2017-11-14T10:59:10.766Z,13.63
2017-11-14T11:00:10.760Z,12.62
2017-11-14T11:01:10.750Z,14.52
2017-11-14T11:02:10.744Z,10.98
2017-11-14T11:03:10.736Z,13.48
2017-11-14T11:04:10.730Z,11.90
2017-11-14T11:05:10.722Z,14.70
2017-11-14T11:06:10.713Z,11.72
2017-11-14T11:07:10.703Z,12.01
2017-11-14T11:08:10.702Z,11.94
2017-11-14T11:09:10.694Z,11.26
2017-11-14T11:10:10.681Z,11.25
2017-11-14T11:11:10.676Z,13.98
2017-11-14T11:12:10.679Z,11.89
2017-11-14T11:13:10.666Z,9.07
2017-11-14T11:14:10.650Z,13.20
2017-11-14T11:15:10.653Z,12.80
2017-11-14T11:16:11.399Z,10.93
2017-11-14T11:17:10.658Z,11.60
2017-11-14T11:18:10.632Z,10.74
2017-11-14T11:19:11.394Z,13.92
2017-11-14T11:20:10.615Z,13.48
2017-11-14T11:21:10.608Z,13.80
2017-11-14T11:22:10.610Z,11.98
2017-11-14T11:23:10.593Z,14.72
2017-11-14T11:24:10.585Z,13.75
2017-11-14T11:25:10.581Z,13.90
2017-11-14T11:26:10.575Z,13.57
2017-11-14T11:27:10.562Z,9.07
2017-11-14T11:28:10.557Z,10.26
2017-11-14T11:29:10.554Z,12.17
2017-11-14T11:30:10.551Z,12.21
2017-11-14T11:31:10.541Z,12.58
2017-11-14T11:32:10.544Z,14.10
2017-11-14T11:33:10.535Z,10.96
2017-11-14T11:34:10.522Z,11.98
2017-11-14T11:35:10.518Z,11.56
2017-11-14T11:36:10.508Z,11.90
2017-11-14T11:37:10.500Z,12.57
2017-11-14T11:38:10.496Z,13.72
2017-11-14T11:39:10.489Z,13.91
2017-11-14T11:40:10.490Z,9.99
2017-11-14T11:41:10.475Z,12.48
2017-11-14T11:42:10.466Z,14.89
2017-11-14T11:43:10.466Z,15.12
2017-11-14T11:44:10.455Z,12.98
2017-11-14T11:45:10.449Z,10.36
2017-11-14T11:46:13.412Z,12.07
2017-11-14T11:47:10.447Z,9.44
2017-11-14T11:48:10.431Z,10.85
2017-11-14T11:49:10.433Z,10.12
2017-11-14T11:50:10.421Z,10.41
2017-11-14T11:51:10.415Z,10.53
2017-11-14T11:52:10.414Z,11.54
2017-11-14T11:53:10.405Z,10.64
2017-11-14T11:54:10.388Z,12.00
2017-11-14T11:55:10.382Z,11.14
2017-11-14T11:56:10.385Z,13.54
2017-11-14T11:57:10.385Z,15.65
2017-11-14T11:58:10.376Z,13.39
2017-11-14T11:59:10.361Z,11.96
2017-11-14T12:00:10.352Z,12.94
2017-11-14T12:01:10.340Z,12.83
2017-11-14T12:02:10.339Z,10.43
2017-11-14T12:03:10.345Z,8.64
2017-11-14T12:04:10.317Z,11.91
2017-11-14T12:05:10.318Z,13.54
2017-11-14T12:06:10.309Z,12.44
2017-11-14T12:07:10.310Z,10.64
2017-11-14T12:08:10.298Z,12.26
2017-11-14T12:09:10.294Z,12.71
2017-11-14T12:10:10.298Z,12.36
2017-11-14T12:11:10.281Z,11.66
2017-11-14T12:12:10.275Z,9.98
2017-11-14T12:13:10.274Z,13.89
2017-11-14T12:14:10.261Z,14.39
2017-11-14T12:15:10.258Z,12.93
2017-11-14T12:16:10.251Z,22.08
2017-11-14T12:17:10.234Z,24.20
2017-11-14T12:18:10.237Z,21.29
2017-11-14T12:19:10.224Z,18.09
2017-11-14T12:20:10.220Z,21.01
2017-11-14T12:21:12.922Z,19.38
2017-11-14T12:22:10.234Z,15.73
2017-11-14T12:23:10.215Z,16.14
2017-11-14T12:24:10.195Z,15.28
2017-11-14T12:25:10.192Z,18.92
2017-11-14T12:26:10.188Z,17.78
2017-11-14T12:27:10.180Z,20.76
2017-11-14T12:28:10.168Z,23.97
2017-11-14T12:29:10.162Z,23.97
2017-11-14T12:30:10.933Z,20.43
2017-11-14T12:31:10.156Z,15.82
2017-11-14T12:32:10.147Z,16.76
2017-11-14T12:33:10.140Z,15.80
2017-11-14T12:34:10.134Z,16.08
2017-11-14T12:35:10.125Z,18.28
2017-11-14T12:36:10.122Z,14.60
2017-11-14T12:37:10.114Z,13.64
2017-11-14T12:38:10.107Z,13.11
2017-11-14T12:39:10.099Z,13.27
2017-11-14T12:40:10.093Z,15.06
2017-11-14T12:41:10.090Z,13.14
2017-11-14T12:42:10.089Z,13.73
2017-11-14T12:43:10.931Z,16.18
2017-11-14T12:44:10.078Z,13.20
2017-11-14T12:45:10.937Z,15.97
2017-11-14T12:46:10.053Z,17.29
2017-11-14T12:47:16.939Z,15.98
2017-11-14T12:48:10.056Z,14.90
2017-11-14T12:49:10.037Z,15.03
2017-11-14T12:50:10.030Z,15.33
2017-11-14T12:51:10.021Z,14.30
2017-11-14T12:52:10.022Z,10.93